Time;durP1;ratioP1;P1;durP2;ratioP2;P2;SDS_P1;SDS_P2;PMS_P1;PMS_P2;Temp;Humidity;BMP_temperature;BMP_pressure;BME280_temperature;BME280_humidity;BME280_pressure;Samples;Min_cycle;Max_cycle;Signal;HPM_P1;HPM_P2
2022/01/12 00:02:28;;;;;;;;;;;3.80;99.90;;;;;;4261153;33;23551;-84
2022/01/12 00:04:58;;;;;;;;;;;3.70;99.90;;;;;;4261453;33;31439;-84
2022/01/12 00:07:25;;;;;;;;;;;3.70;99.90;;;;;;4261196;33;20015;-83
2022/01/12 00:09:52;;;;;;;;;;;3.70;99.90;;;;;;4260738;33;38272;-83
2022/01/12 00:12:26;;;;;;;;;;;3.80;99.90;;;;;;4261311;33;26724;-83
2022/01/12 00:14:55;;;;;;;;;;;3.70;99.90;;;;;;4249333;33;33478;-83
2022/01/12 00:17:22;;;;;;;;;;;3.70;99.90;;;;;;4273885;33;31704;-84
2022/01/12 00:19:53;;;;;;;;;;;3.70;99.90;;;;;;4261759;33;29034;-83
2022/01/12 00:22:20;;;;;;;;;;;3.70;99.90;;;;;;4261313;33;19995;-83
2022/01/12 00:33:14;;;;;;;;;;;3.70;99.90;;;;;;4261216;33;24516;-83
2022/01/12 00:35:50;;;;;;;;;;;3.60;99.90;;;;;;4249164;33;27712;-83
2022/01/12 00:38:25;;;;;;;;;;;3.60;99.90;;;;;;4261155;33;22884;-84
2022/01/12 00:40:56;;;;;;;;;;;3.60;99.90;;;;;;4261926;33;20017;-84
2022/01/12 00:43:26;;;;;;;;;;;3.60;99.90;;;;;;4261740;33;20063;-83
2022/01/12 00:45:59;;;;;;;;;;;3.60;99.90;;;;;;4274424;33;20024;-84
2022/01/12 00:48:26;;;;;;;;;;;3.60;99.90;;;;;;4249650;33;20003;-84
2022/01/12 00:50:55;;;;;;;;;;;3.60;99.90;;;;;;4274426;33;20085;-84
2022/01/12 00:53:23;;;;;;;;;;;3.60;99.90;;;;;;4261282;33;20066;-84
2022/01/12 00:55:53;;;;;;;;;;;3.60;99.90;;;;;;4261700;33;20010;-84
2022/01/12 00:58:26;;;;;;;;;;;3.60;99.90;;;;;;4262097;33;20024;-84
2022/01/12 01:00:53;;;;;;;;;;;3.60;99.90;;;;;;4249252;33;20010;-83
2022/01/12 01:03:21;;;;;;;;;;;3.60;99.90;;;;;;4248748;33;20019;-84
2022/01/12 01:05:49;;;;;;;;;;;3.60;99.90;;;;;;4261069;33;20090;-84
2022/01/12 01:08:19;;;;;;;;;;;3.60;99.90;;;;;;4261816;33;20050;-84
2022/01/12 01:10:47;;;;;;;;;;;3.60;99.90;;;;;;4261163;33;20397;-84
2022/01/12 01:13:16;;;;;;;;;;;3.60;99.90;;;;;;4249448;33;20001;-84
2022/01/12 01:26:37;;;;;;;;;;;3.60;99.90;;;;;;4260905;33;20446;-84
2022/01/12 01:29:05;;;;;;;;;;;3.60;99.90;;;;;;4261574;33;20044;-84
2022/01/12 01:31:34;;;;;;;;;;;3.60;99.90;;;;;;4261141;33;20028;-83
2022/01/12 01:34:09;;;;;;;;;;;3.60;99.90;;;;;;4273433;33;21937;-83
2022/01/12 01:36:41;;;;;;;;;;;3.50;99.90;;;;;;4261195;33;20019;-83
2022/01/12 01:39:09;;;;;;;;;;;3.50;99.90;;;;;;4260745;33;19999;-83
2022/01/12 01:41:39;;;;;;;;;;;3.60;99.90;;;;;;4273908;33;20062;-83
2022/01/12 01:53:18;;;;;;;;;;;3.60;99.90;;;;;;4274022;33;20010;-83
2022/01/12 01:55:09;;;;;;;;;;;3.50;99.90;;;;;;4261035;33;20376;-83
2022/01/12 01:57:37;;;;;;;;;;;3.50;99.90;;;;;;4260838;33;20010;-84
2022/01/12 02:00:05;;;;;;;;;;;3.50;99.90;;;;;;4260580;33;20007;-83
2022/01/12 02:02:35;;;;;;;;;;;3.50;99.90;;;;;;4260352;33;20014;-83
2022/01/12 02:05:03;;;;;;;;;;;3.50;99.90;;;;;;4260686;33;20022;-83
2022/01/12 02:07:31;;;;;;;;;;;3.50;99.90;;;;;;4260395;33;20472;-83
2022/01/12 02:09:59;;;;;;;;;;;3.50;99.90;;;;;;4260410;33;20054;-83
2022/01/12 02:12:30;;;;;;;;;;;3.50;99.90;;;;;;4249186;33;20459;-84
2022/01/12 02:15:00;;;;;;;;;;;3.50;99.90;;;;;;4260649;33;20003;-83
2022/01/12 02:17:38;;;;;;;;;;;3.50;99.90;;;;;;4263943;33;20479;-83
2022/01/12 02:36:54;;;;;;;;;;;3.40;99.90;;;;;;4259469;33;20015;-83
2022/01/12 02:42:22;;;;;;;;;;;3.40;99.90;;;;;;4254832;33;20341;-83
2022/01/12 02:50:42;;;;;;;;;;;3.40;99.90;;;;;;4248919;33;20409;-83
2022/01/12 02:55:59;;;;;;;;;;;3.30;99.90;;;;;;4262900;33;19999;-83
2022/01/12 02:58:32;;;;;;;;;;;3.30;99.90;;;;;;4263645;33;20088;-84
2022/01/12 03:01:21;;;;;;;;;;;3.40;99.90;;;;;;4263120;33;20010;-83
2022/01/12 03:03:51;;;;;;;;;;;3.40;99.90;;;;;;4275675;33;20115;-83
2022/01/12 03:06:23;;;;;;;;;;;3.30;99.90;;;;;;4262552;33;20086;-83
2022/01/12 03:08:51;;;;;;;;;;;3.30;99.90;;;;;;4275938;33;20011;-84
2022/01/12 03:11:19;;;;;;;;;;;3.30;99.90;;;;;;4263305;33;20007;-84
2022/01/12 03:13:46;;;;;;;;;;;3.30;99.90;;;;;;4262854;33;20042;-84
2022/01/12 03:16:16;;;;;;;;;;;3.30;99.90;;;;;;4262382;33;20015;-83
2022/01/12 03:18:44;;;;;;;;;;;3.30;99.90;;;;;;4262824;33;20045;-83
2022/01/12 03:21:12;;;;;;;;;;;3.30;99.90;;;;;;4262199;33;20040;-83
2022/01/12 03:23:39;;;;;;;;;;;3.30;99.90;;;;;;4262463;33;20159;-83
2022/01/12 03:26:09;;;;;;;;;;;3.30;99.90;;;;;;4262583;33;19995;-83
2022/01/12 03:28:38;;;;;;;;;;;3.30;99.90;;;;;;4261919;33;35612;-83
2022/01/12 03:39:01;;;;;;;;;;;3.20;99.90;;;;;;4274689;33;27387;-83
2022/01/12 03:41:32;;;;;;;;;;;3.20;99.90;;;;;;4261251;33;41530;-83
2022/01/12 03:44:00;;;;;;;;;;;3.20;99.90;;;;;;4262344;33;20022;-83
2022/01/12 03:46:33;;;;;;;;;;;3.20;99.90;;;;;;4260980;33;37531;-83
2022/01/12 03:49:01;;;;;;;;;;;3.20;99.90;;;;;;4250904;33;20074;-83
2022/01/12 03:51:28;;;;;;;;;;;3.20;99.90;;;;;;4249892;33;23912;-83
2022/01/12 03:53:55;;;;;;;;;;;3.20;99.90;;;;;;4261868;33;30585;-82
2022/01/12 03:56:22;;;;;;;;;;;3.20;99.90;;;;;;4261454;33;37879;-83
2022/01/12 03:58:49;;;;;;;;;;;3.20;99.90;;;;;;4261579;33;34864;-83
2022/01/12 04:01:19;;;;;;;;;;;3.20;99.90;;;;;;4262065;33;20022;-83
2022/01/12 04:03:58;;;;;;;;;;;3.20;99.90;;;;;;4261870;33;25734;-83
2022/01/12 04:09:36;;;;;;;;;;;3.20;99.90;;;;;;4262184;33;20003;-84
2022/01/12 04:12:06;;;;;;;;;;;3.20;99.90;;;;;;4249378;33;27431;-83
2022/01/12 04:14:33;;;;;;;;;;;3.20;99.90;;;;;;4249465;33;29941;-83
2022/01/12 04:17:05;;;;;;;;;;;3.20;99.90;;;;;;4274135;33;20412;-83
2022/01/12 04:19:37;;;;;;;;;;;3.20;99.90;;;;;;4249643;33;20006;-83
2022/01/12 04:23:16;;;;;;;;;;;3.20;99.90;;;;;;4260615;33;35455;-84
2022/01/12 04:25:00;;;;;;;;;;;3.20;99.90;;;;;;4274145;33;20016;-83
2022/01/12 04:27:33;;;;;;;;;;;3.20;99.90;;;;;;4249206;33;26314;-83
2022/01/12 04:30:03;;;;;;;;;;;3.20;99.90;;;;;;4261288;33;31309;-83
2022/01/12 04:32:30;;;;;;;;;;;3.20;99.90;;;;;;4248798;33;29517;-84
2022/01/12 04:34:58;;;;;;;;;;;3.20;99.90;;;;;;4260935;33;25121;-83
2022/01/12 04:37:31;;;;;;;;;;;3.20;99.90;;;;;;4260074;33;45664;-83
2022/01/12 04:39:58;;;;;;;;;;;3.20;99.90;;;;;;4260749;33;35164;-83
2022/01/12 04:42:28;;;;;;;;;;;3.20;99.90;;;;;;4261110;33;22127;-83
2022/01/12 04:45:03;;;;;;;;;;;3.20;99.90;;;;;;4260388;33;24973;-84
2022/01/12 04:47:59;;;;;;;;;;;3.20;99.90;;;;;;4260968;33;29332;-83
2022/01/12 04:50:28;;;;;;;;;;;3.20;99.90;;;;;;4261622;33;20029;-83
2022/01/12 04:53:00;;;;;;;;;;;3.20;99.90;;;;;;4261517;33;20013;-83
2022/01/12 04:55:30;;;;;;;;;;;3.20;99.90;;;;;;4274435;33;20025;-84
2022/01/12 04:57:58;;;;;;;;;;;3.20;99.90;;;;;;4261902;33;20034;-83
2022/01/12 05:00:30;;;;;;;;;;;3.20;99.90;;;;;;4261714;33;20014;-83
2022/01/12 05:13:52;;;;;;;;;;;3.20;99.90;;;;;;4260905;33;20067;-83
2022/01/12 05:16:20;;;;;;;;;;;3.20;99.90;;;;;;4274184;33;20025;-84
2022/01/12 05:18:48;;;;;;;;;;;3.20;99.90;;;;;;4249270;33;20003;-83
2022/01/12 05:21:20;;;;;;;;;;;3.20;99.90;;;;;;4261092;33;20049;-83
2022/01/12 05:24:01;;;;;;;;;;;3.20;99.90;;;;;;4261702;33;20015;-83
2022/01/12 05:26:30;;;;;;;;;;;3.20;99.90;;;;;;4261200;33;20023;-83
2022/01/12 05:29:00;;;;;;;;;;;3.20;99.90;;;;;;4261315;33;20019;-83
2022/01/12 05:31:32;;;;;;;;;;;3.20;99.90;;;;;;4260869;33;20011;-83
2022/01/12 05:34:03;;;;;;;;;;;3.10;99.90;;;;;;4261240;33;20066;-83
2022/01/12 05:36:35;;;;;;;;;;;3.10;99.90;;;;;;4261208;33;20046;-83
2022/01/12 05:39:03;;;;;;;;;;;3.20;99.90;;;;;;4260885;33;20425;-83
2022/01/12 05:41:33;;;;;;;;;;;3.10;99.90;;;;;;4248677;33;20064;-83
2022/01/12 05:44:06;;;;;;;;;;;3.20;99.90;;;;;;4260939;33;20411;-83
2022/01/12 05:46:39;;;;;;;;;;;3.20;99.90;;;;;;4261266;33;20017;-83
2022/01/12 05:51:58;;;;;;;;;;;3.20;99.90;;;;;;4263682;33;20010;-83
2022/01/12 05:54:31;;;;;;;;;;;3.20;99.90;;;;;;4263945;33;19991;-83
2022/01/12 05:56:58;;;;;;;;;;;3.20;99.90;;;;;;4263474;33;20003;-83
2022/01/12 05:59:25;;;;;;;;;;;3.20;99.90;;;;;;4263526;33;20026;-83
2022/01/12 06:01:55;;;;;;;;;;;3.20;99.90;;;;;;4263451;33;20021;-83
2022/01/12 06:04:23;;;;;;;;;;;3.20;99.90;;;;;;4263868;33;20052;-84
2022/01/12 06:06:52;;;;;;;;;;;3.20;99.90;;;;;;4252182;33;20062;-83
2022/01/12 06:09:22;;;;;;;;;;;3.20;99.90;;;;;;4263673;33;20007;-83
2022/01/12 06:11:50;;;;;;;;;;;3.20;99.90;;;;;;4263963;33;20026;-83
2022/01/12 06:14:22;;;;;;;;;;;3.20;99.90;;;;;;4263775;33;20015;-83
2022/01/12 06:16:50;;;;;;;;;;;3.20;99.90;;;;;;4263741;33;19999;-85
2022/01/12 06:19:25;;;;;;;;;;;3.10;99.90;;;;;;4276460;33;20010;-82
2022/01/12 06:21:55;;;;;;;;;;;3.20;99.90;;;;;;4263594;33;20011;-83
2022/01/12 06:24:22;;;;;;;;;;;3.10;99.90;;;;;;4263309;33;20011;-83
2022/01/12 06:26:55;;;;;;;;;;;3.20;99.90;;;;;;4263212;33;20054;-83
2022/01/12 06:29:41;;;;;;;;;;;3.10;99.90;;;;;;4263412;33;19999;-84
2022/01/12 06:32:09;;;;;;;;;;;3.20;99.90;;;;;;4263029;33;20037;-83
2022/01/12 06:34:36;;;;;;;;;;;3.20;99.90;;;;;;4251542;33;20062;-83
2022/01/12 06:37:11;;;;;;;;;;;3.20;99.90;;;;;;4251312;33;20458;-83
2022/01/12 06:39:41;;;;;;;;;;;3.20;99.90;;;;;;4263023;33;20040;-83
2022/01/12 06:42:09;;;;;;;;;;;3.10;99.90;;;;;;4251772;33;20401;-83
2022/01/12 06:44:37;;;;;;;;;;;3.20;99.90;;;;;;4262666;33;20014;-82
2022/01/12 06:47:05;;;;;;;;;;;3.10;99.90;;;;;;4250022;33;38648;-82
2022/01/12 06:49:33;;;;;;;;;;;3.20;99.90;;;;;;4262700;33;20042;-82
2022/01/12 06:52:03;;;;;;;;;;;3.10;99.90;;;;;;4250372;33;30500;-82
2022/01/12 06:54:31;;;;;;;;;;;3.10;99.90;;;;;;4262366;33;33161;-82
2022/01/12 06:57:04;;;;;;;;;;;3.10;99.90;;;;;;4262207;33;20014;-83
2022/01/12 06:59:34;;;;;;;;;;;3.20;99.90;;;;;;4262353;33;31430;-82
2022/01/12 07:02:01;;;;;;;;;;;3.10;99.90;;;;;;4273964;33;31042;-82
2022/01/12 07:04:31;;;;;;;;;;;3.10;99.90;;;;;;4263216;33;20472;-82
2022/01/12 07:06:59;;;;;;;;;;;3.10;99.90;;;;;;4262668;33;20006;-81
2022/01/12 07:09:26;;;;;;;;;;;3.20;99.90;;;;;;4262367;33;20425;-81
2022/01/12 07:11:53;;;;;;;;;;;3.20;99.90;;;;;;4274693;33;39352;-80
2022/01/12 07:14:20;;;;;;;;;;;3.10;99.90;;;;;;4250534;33;20007;-80
2022/01/12 07:16:47;;;;;;;;;;;3.10;99.90;;;;;;4262041;33;23763;-80
2022/01/12 07:19:15;;;;;;;;;;;3.10;99.90;;;;;;4262081;33;39110;-80
2022/01/12 07:21:42;;;;;;;;;;;3.10;99.90;;;;;;4274458;33;27059;-80
2022/01/12 07:24:11;;;;;;;;;;;3.10;99.90;;;;;;4275236;33;20053;-80
2022/01/12 07:26:38;;;;;;;;;;;3.10;99.90;;;;;;4261631;33;25604;-81
2022/01/12 07:29:05;;;;;;;;;;;3.10;99.90;;;;;;4249687;33;31640;-81
2022/01/12 07:31:32;;;;;;;;;;;3.10;99.90;;;;;;4249932;33;25351;-81
2022/01/12 07:33:59;;;;;;;;;;;3.10;99.90;;;;;;4274312;33;35878;-80
2022/01/12 07:36:26;;;;;;;;;;;3.10;99.90;;;;;;4274274;33;24680;-80
2022/01/12 07:38:55;;;;;;;;;;;3.10;99.90;;;;;;4261519;33;33505;-80
2022/01/12 07:41:23;;;;;;;;;;;3.10;99.90;;;;;;4250204;33;20033;-80
2022/01/12 07:43:54;;;;;;;;;;;3.10;99.90;;;;;;4261744;33;32236;-80
2022/01/12 07:46:24;;;;;;;;;;;3.10;99.90;;;;;;4262054;33;35592;-80
2022/01/12 07:48:51;;;;;;;;;;;3.10;99.90;;;;;;4261169;33;31766;-80
2022/01/12 07:51:18;;;;;;;;;;;3.10;99.90;;;;;;4261190;33;31861;-81
2022/01/12 07:53:45;;;;;;;;;;;3.10;99.90;;;;;;4261111;33;36766;-81
2022/01/12 07:56:13;;;;;;;;;;;3.10;99.90;;;;;;4261493;33;33461;-80
2022/01/12 07:58:40;;;;;;;;;;;3.10;99.90;;;;;;4261082;33;30828;-80
2022/01/12 08:01:08;;;;;;;;;;;3.10;99.90;;;;;;4260647;33;37812;-80
2022/01/12 08:03:36;;;;;;;;;;;3.10;99.90;;;;;;4249269;33;25491;-80
2022/01/12 08:06:03;;;;;;;;;;;3.10;99.90;;;;;;4261155;33;30229;-80
2022/01/12 08:08:30;;;;;;;;;;;3.10;99.90;;;;;;4260903;33;37946;-81
2022/01/12 08:10:57;;;;;;;;;;;3.20;99.90;;;;;;4261051;33;32477;-80
2022/01/12 08:13:24;;;;;;;;;;;3.10;99.90;;;;;;4272902;33;43350;-80
2022/01/12 08:15:53;;;;;;;;;;;3.10;99.90;;;;;;4261286;33;37432;-80
2022/01/12 08:18:20;;;;;;;;;;;3.10;99.90;;;;;;4260578;33;40853;-80
2022/01/12 08:20:47;;;;;;;;;;;3.10;99.90;;;;;;4248708;33;41559;-80
2022/01/12 08:23:15;;;;;;;;;;;3.10;99.90;;;;;;4262166;33;20019;-80
2022/01/12 08:25:42;;;;;;;;;;;3.20;99.90;;;;;;4273180;33;39671;-81
2022/01/12 08:28:11;;;;;;;;;;;3.10;99.90;;;;;;4248893;33;33317;-80
2022/01/12 08:30:39;;;;;;;;;;;3.10;99.90;;;;;;4261131;33;29157;-80
2022/01/12 08:33:06;;;;;;;;;;;3.10;99.90;;;;;;4260481;33;38809;-81
2022/01/12 08:35:33;;;;;;;;;;;3.10;99.90;;;;;;4260351;33;45224;-80
2022/01/12 08:38:00;;;;;;;;;;;3.10;99.90;;;;;;4261278;33;25016;-80
2022/01/12 08:40:27;;;;;;;;;;;3.10;99.90;;;;;;4260306;33;42633;-80
2022/01/12 08:42:55;;;;;;;;;;;3.10;99.90;;;;;;4260433;33;37277;-80
2022/01/12 08:45:22;;;;;;;;;;;3.10;99.90;;;;;;4260468;33;31091;-80
2022/01/12 08:47:49;;;;;;;;;;;3.10;99.90;;;;;;4260068;33;41441;-81
2022/01/12 08:50:16;;;;;;;;;;;3.10;99.90;;;;;;4260686;33;30932;-80
2022/01/12 08:52:45;;;;;;;;;;;3.10;99.90;;;;;;4260794;33;35669;-81
2022/01/12 08:55:12;;;;;;;;;;;3.10;99.90;;;;;;4273008;33;33541;-81
2022/01/12 08:57:40;;;;;;;;;;;3.10;99.90;;;;;;4260733;33;27358;-80
2022/01/12 09:00:07;;;;;;;;;;;3.10;99.90;;;;;;4260554;33;23614;-80
2022/01/12 09:02:35;;;;;;;;;;;3.10;99.90;;;;;;4260271;33;29084;-80
2022/01/12 09:05:03;;;;;;;;;;;3.10;99.90;;;;;;4261234;33;20089;-80
2022/01/12 09:07:30;;;;;;;;;;;3.10;99.90;;;;;;4260315;33;44062;-81
2022/01/12 09:09:57;;;;;;;;;;;3.10;99.90;;;;;;4248897;33;20010;-80
2022/01/12 09:12:25;;;;;;;;;;;3.10;99.90;;;;;;4260227;33;41290;-80
2022/01/12 09:14:53;;;;;;;;;;;3.10;99.90;;;;;;4249230;33;20054;-80
2022/01/12 09:17:21;;;;;;;;;;;3.10;99.90;;;;;;4261098;33;20011;-80
2022/01/12 09:19:52;;;;;;;;;;;3.10;99.90;;;;;;4260413;33;20043;-80
2022/01/12 09:22:20;;;;;;;;;;;3.10;99.90;;;;;;4259653;33;44141;-80
2022/01/12 09:24:49;;;;;;;;;;;3.10;99.90;;;;;;4260156;33;38632;-80
2022/01/12 09:27:18;;;;;;;;;;;3.10;99.90;;;;;;4259918;33;44065;-80
2022/01/12 09:29:46;;;;;;;;;;;3.10;99.90;;;;;;4260030;33;30589;-80
2022/01/12 09:32:14;;;;;;;;;;;3.10;99.90;;;;;;4261097;33;20078;-80
2022/01/12 09:34:41;;;;;;;;;;;3.10;99.90;;;;;;4259627;33;46792;-80
2022/01/12 09:37:08;;;;;;;;;;;3.20;99.90;;;;;;4248184;33;40969;-80
2022/01/12 09:39:35;;;;;;;;;;;3.10;99.90;;;;;;4259984;33;45368;-81
2022/01/12 09:42:03;;;;;;;;;;;3.20;99.90;;;;;;4261287;33;20153;-80
2022/01/12 09:44:35;;;;;;;;;;;3.10;99.90;;;;;;4259892;33;36292;-80
2022/01/12 09:47:06;;;;;;;;;;;3.20;99.90;;;;;;4261371;33;20043;-80
2022/01/12 09:49:33;;;;;;;;;;;3.20;99.90;;;;;;4260404;33;29515;-80
2022/01/12 09:52:00;;;;;;;;;;;3.20;99.90;;;;;;4272618;33;42541;-80
2022/01/12 09:54:28;;;;;;;;;;;3.20;99.90;;;;;;4260348;33;20006;-80
2022/01/12 09:56:57;;;;;;;;;;;3.10;99.90;;;;;;4259929;33;25241;-80
2022/01/12 09:59:24;;;;;;;;;;;3.20;99.90;;;;;;4260011;33;24984;-80
2022/01/12 10:01:54;;;;;;;;;;;3.20;99.90;;;;;;4260808;33;20025;-81
2022/01/12 10:04:25;;;;;;;;;;;3.10;99.90;;;;;;4271892;33;30562;-80
2022/01/12 10:07:00;;;;;;;;;;;3.10;99.90;;;;;;4273280;33;20188;-80
2022/01/12 10:09:43;;;;;;;;;;;3.20;99.90;;;;;;4272814;33;37931;-80
2022/01/12 10:12:13;;;;;;;;;;;3.20;99.90;;;;;;4259757;33;44117;-80
2022/01/12 10:14:51;;;;;;;;;;;3.20;99.90;;;;;;4259537;33;38359;-80
2022/01/12 10:17:19;;;;;;;;;;;3.20;99.90;;;;;;4272801;33;34780;-80
2022/01/12 10:19:46;;;;;;;;;;;3.20;99.90;;;;;;4272933;33;29472;-80
2022/01/12 10:22:15;;;;;;;;;;;3.20;99.90;;;;;;4260480;33;35429;-80
2022/01/12 10:24:45;;;;;;;;;;;3.20;99.90;;;;;;4259310;33;41972;-80
2022/01/12 10:27:12;;;;;;;;;;;3.20;99.90;;;;;;4258974;33;44635;-80
2022/01/12 10:29:44;;;;;;;;;;;3.20;99.90;;;;;;4261076;33;20010;-80
2022/01/12 10:32:19;;;;;;;;;;;3.20;99.90;;;;;;4273365;33;20011;-80
2022/01/12 10:34:48;;;;;;;;;;;3.20;99.90;;;;;;4260220;33;20088;-80
2022/01/12 10:37:19;;;;;;;;;;;3.20;99.90;;;;;;4261415;33;40573;-80
2022/01/12 10:39:48;;;;;;;;;;;3.20;99.90;;;;;;4276457;33;20010;-81
2022/01/12 10:42:19;;;;;;;;;;;3.20;99.90;;;;;;4262503;33;19998;-80
2022/01/12 10:44:48;;;;;;;;;;;3.20;99.90;;;;;;4263245;33;20017;-80
2022/01/12 10:47:17;;;;;;;;;;;3.20;99.90;;;;;;4262940;33;20036;-81
2022/01/12 10:49:53;;;;;;;;;;;3.20;99.90;;;;;;4263514;33;20011;-80
2022/01/12 10:52:29;;;;;;;;;;;3.20;99.90;;;;;;4250353;33;37068;-80
2022/01/12 10:54:58;;;;;;;;;;;3.20;99.90;;;;;;4262198;33;41717;-80
2022/01/12 10:57:33;;;;;;;;;;;3.20;99.90;;;;;;4261716;33;40201;-80
2022/01/12 11:00:10;;;;;;;;;;;3.20;99.90;;;;;;4274874;33;41861;-81
2022/01/12 11:02:38;;;;;;;;;;;3.20;99.90;;;;;;4262391;33;20405;-80
2022/01/12 11:05:08;;;;;;;;;;;3.20;99.90;;;;;;4262824;33;20018;-80
2022/01/12 11:07:38;;;;;;;;;;;3.20;99.90;;;;;;4262611;33;20014;-80
2022/01/12 11:10:06;;;;;;;;;;;3.20;99.90;;;;;;4262345;33;30357;-80
2022/01/12 11:12:35;;;;;;;;;;;3.20;99.90;;;;;;4275548;33;20105;-80
2022/01/12 11:15:09;;;;;;;;;;;3.20;99.90;;;;;;4274701;33;43357;-80
2022/01/12 11:17:40;;;;;;;;;;;3.20;99.90;;;;;;4249641;33;42616;-81
2022/01/12 11:20:11;;;;;;;;;;;3.20;99.90;;;;;;4262150;33;34257;-81
2022/01/12 11:22:47;;;;;;;;;;;3.20;99.90;;;;;;4250814;33;20009;-80
2022/01/12 11:25:22;;;;;;;;;;;3.20;99.90;;;;;;4261545;33;42410;-81
2022/01/12 11:28:02;;;;;;;;;;;3.20;99.90;;;;;;4249995;33;32062;-80
2022/01/12 11:30:33;;;;;;;;;;;3.20;99.90;;;;;;4261746;33;44616;-80
2022/01/12 11:33:02;;;;;;;;;;;3.20;99.90;;;;;;4250758;33;20003;-80
2022/01/12 11:35:32;;;;;;;;;;;3.20;99.90;;;;;;4261151;33;41952;-80
2022/01/12 11:38:04;;;;;;;;;;;3.20;99.90;;;;;;4261587;33;31862;-80
2022/01/12 11:40:38;;;;;;;;;;;3.20;99.90;;;;;;4261887;33;38168;-80
2022/01/12 11:43:32;;;;;;;;;;;3.20;99.90;;;;;;4250206;33;21709;-82
2022/01/12 11:46:01;;;;;;;;;;;3.20;99.90;;;;;;4261254;33;21158;-80
2022/01/12 11:48:49;;;;;;;;;;;3.20;99.90;;;;;;4249224;33;35127;-80
2022/01/12 11:51:17;;;;;;;;;;;3.20;99.90;;;;;;4249816;33;32795;-80
2022/01/12 11:53:47;;;;;;;;;;;3.20;99.90;;;;;;4249210;33;33808;-80
2022/01/12 11:56:17;;;;;;;;;;;3.20;99.90;;;;;;4250113;33;20066;-81
2022/01/12 11:58:51;;;;;;;;;;;3.20;99.90;;;;;;4273942;33;36375;-81
2022/01/12 12:01:18;;;;;;;;;;;3.20;99.90;;;;;;4249168;33;39634;-80
2022/01/12 12:03:59;;;;;;;;;;;3.20;99.90;;;;;;4274137;33;38681;-80
2022/01/12 12:06:29;;;;;;;;;;;3.20;99.90;;;;;;4260834;33;44873;-80
2022/01/12 12:08:57;;;;;;;;;;;3.20;99.90;;;;;;4274423;33;23062;-80
2022/01/12 12:11:25;;;;;;;;;;;3.20;99.90;;;;;;4249510;33;24309;-80
2022/01/12 12:13:54;;;;;;;;;;;3.20;99.90;;;;;;4249693;33;20357;-80
2022/01/12 12:16:25;;;;;;;;;;;3.20;99.90;;;;;;4260762;33;40046;-80
2022/01/12 12:18:57;;;;;;;;;;;3.20;99.90;;;;;;4249278;33;25889;-80
2022/01/12 12:21:24;;;;;;;;;;;3.20;99.90;;;;;;4261342;33;34605;-80
2022/01/12 12:23:57;;;;;;;;;;;3.20;99.90;;;;;;4261402;33;35422;-80
2022/01/12 12:26:27;;;;;;;;;;;3.20;99.90;;;;;;4260687;33;32066;-80
2022/01/12 12:28:55;;;;;;;;;;;3.30;99.90;;;;;;4261129;33;29131;-80
2022/01/12 12:31:23;;;;;;;;;;;3.20;99.90;;;;;;4261077;33;27836;-80
2022/01/12 12:34:15;;;;;;;;;;;3.30;99.90;;;;;;4274981;33;20021;-81
2022/01/12 12:36:48;;;;;;;;;;;3.20;99.90;;;;;;4261985;33;20003;-81
2022/01/12 12:39:15;;;;;;;;;;;3.30;99.90;;;;;;4261987;33;20084;-80
2022/01/12 12:41:44;;;;;;;;;;;3.20;99.90;;;;;;4261566;33;20394;-81
2022/01/12 12:44:28;;;;;;;;;;;3.20;99.90;;;;;;4249498;33;20003;-80
2022/01/12 12:47:13;;;;;;;;;;;3.30;99.90;;;;;;4274532;33;20003;-81
2022/01/12 12:50:02;;;;;;;;;;;3.20;99.90;;;;;;4260959;33;20016;-80
2022/01/12 12:52:36;;;;;;;;;;;3.20;99.90;;;;;;4261424;33;20322;-80
2022/01/12 12:55:06;;;;;;;;;;;3.30;99.90;;;;;;4261354;33;19995;-80
2022/01/12 12:57:33;;;;;;;;;;;3.30;99.90;;;;;;4261218;33;20401;-80
2022/01/12 13:00:22;;;;;;;;;;;3.30;99.90;;;;;;4274108;33;20421;-81
2022/01/12 13:02:53;;;;;;;;;;;3.30;99.90;;;;;;4260958;33;20052;-81
2022/01/12 13:05:41;;;;;;;;;;;3.30;99.90;;;;;;4274241;33;20003;-80
2022/01/12 13:08:12;;;;;;;;;;;3.30;99.90;;;;;;4261379;33;20015;-80
2022/01/12 13:10:39;;;;;;;;;;;3.30;99.90;;;;;;4261099;33;20009;-81
2022/01/12 13:13:09;;;;;;;;;;;3.30;99.90;;;;;;4260841;33;20010;-81
2022/01/12 13:15:39;;;;;;;;;;;3.30;99.90;;;;;;4260869;33;20011;-80
2022/01/12 13:18:19;;;;;;;;;;;3.30;99.90;;;;;;4261217;33;20018;-81
2022/01/12 13:21:09;;;;;;;;;;;3.30;99.90;;;;;;4260726;33;24392;-80
2022/01/12 13:23:38;;;;;;;;;;;3.30;99.90;;;;;;4261051;33;20010;-80
2022/01/12 13:26:08;;;;;;;;;;;3.30;99.90;;;;;;4261005;33;20070;-81
2022/01/12 13:28:36;;;;;;;;;;;3.30;99.90;;;;;;4273736;33;20467;-80
2022/01/12 13:31:05;;;;;;;;;;;3.30;99.90;;;;;;4261284;33;20021;-80
2022/01/12 13:33:33;;;;;;;;;;;3.30;99.90;;;;;;4248771;33;20388;-80
2022/01/12 13:36:11;;;;;;;;;;;3.30;99.90;;;;;;4273433;33;20017;-80
2022/01/12 13:38:38;;;;;;;;;;;3.30;99.90;;;;;;4260245;33;23109;-80
2022/01/12 13:41:16;;;;;;;;;;;3.30;99.90;;;;;;4260578;33;21660;-80
2022/01/12 13:43:55;;;;;;;;;;;3.30;99.90;;;;;;4260737;33;20018;-80
2022/01/12 13:46:31;;;;;;;;;;;3.30;99.90;;;;;;4261083;33;20306;-81
2022/01/12 13:51:51;;;;;;;;;;;3.30;99.90;;;;;;4260615;33;20010;-81
2022/01/12 13:54:19;;;;;;;;;;;3.40;99.90;;;;;;4261222;33;20016;-80
2022/01/12 13:56:54;;;;;;;;;;;3.30;99.90;;;;;;4260938;33;20403;-80
2022/01/12 13:59:27;;;;;;;;;;;3.30;99.90;;;;;;4261763;33;20015;-80
2022/01/12 14:01:55;;;;;;;;;;;3.30;99.90;;;;;;4248339;33;20392;-80
2022/01/12 14:04:30;;;;;;;;;;;3.30;99.90;;;;;;4260506;33;20421;-80
2022/01/12 14:07:01;;;;;;;;;;;3.30;99.90;;;;;;4260751;33;20019;-80
2022/01/12 14:09:38;;;;;;;;;;;3.40;99.90;;;;;;4260907;33;20011;-81
2022/01/12 14:12:10;;;;;;;;;;;3.30;99.90;;;;;;4262685;33;20090;-81
2022/01/12 14:14:48;;;;;;;;;;;3.30;99.90;;;;;;4263425;33;20402;-81
2022/01/12 14:17:27;;;;;;;;;;;3.30;99.90;;;;;;4263712;33;20108;-80
2022/01/12 14:19:59;;;;;;;;;;;3.30;99.90;;;;;;4251284;33;20023;-80
2022/01/12 14:22:51;;;;;;;;;;;3.40;99.90;;;;;;4264092;33;20018;-80
2022/01/12 14:25:33;;;;;;;;;;;3.40;99.90;;;;;;4262648;33;20019;-80
2022/01/12 14:28:02;;;;;;;;;;;3.40;99.90;;;;;;4263622;33;20022;-80
2022/01/12 14:30:33;;;;;;;;;;;3.40;99.90;;;;;;4263337;33;20025;-80
2022/01/12 14:33:06;;;;;;;;;;;3.40;99.90;;;;;;4263847;33;20413;-80
2022/01/12 14:35:36;;;;;;;;;;;3.40;99.90;;;;;;4276268;33;20010;-80
2022/01/12 14:38:03;;;;;;;;;;;3.40;99.90;;;;;;4263345;33;20063;-81
2022/01/12 14:40:43;;;;;;;;;;;3.40;99.90;;;;;;4263386;33;20042;-81
2022/01/12 14:43:11;;;;;;;;;;;3.40;99.90;;;;;;4261975;33;32203;-80
2022/01/12 14:45:41;;;;;;;;;;;3.40;99.90;;;;;;4261956;33;36948;-80
2022/01/12 14:48:10;;;;;;;;;;;3.40;99.90;;;;;;4250224;33;33440;-80
2022/01/12 14:50:42;;;;;;;;;;;3.40;99.90;;;;;;4249993;33;36786;-80
2022/01/12 14:53:10;;;;;;;;;;;3.40;99.90;;;;;;4262277;33;34430;-80
2022/01/12 14:55:45;;;;;;;;;;;3.40;99.90;;;;;;4251095;33;33802;-81
2022/01/12 14:58:12;;;;;;;;;;;3.40;99.90;;;;;;4250170;33;29621;-80
2022/01/12 15:00:39;;;;;;;;;;;3.40;99.90;;;;;;4262149;33;37180;-80
2022/01/12 15:03:07;;;;;;;;;;;3.40;99.90;;;;;;4261781;33;43394;-80
2022/01/12 15:05:35;;;;;;;;;;;3.40;99.90;;;;;;4250024;33;33456;-81
2022/01/12 15:08:03;;;;;;;;;;;3.40;99.90;;;;;;4261499;33;34790;-78
2022/01/12 15:10:30;;;;;;;;;;;3.40;99.90;;;;;;4261482;33;44803;-77
2022/01/12 15:13:05;;;;;;;;;;;3.40;99.90;;;;;;4249700;33;38396;-77
2022/01/12 15:15:32;;;;;;;;;;;3.40;99.90;;;;;;4274987;33;30463;-77
2022/01/12 15:18:00;;;;;;;;;;;3.50;99.90;;;;;;4261809;33;37673;-77
2022/01/12 15:20:28;;;;;;;;;;;3.40;99.90;;;;;;4275124;33;20010;-77
2022/01/12 15:22:55;;;;;;;;;;;3.50;99.90;;;;;;4274437;33;20018;-77
2022/01/12 15:25:26;;;;;;;;;;;3.50;99.90;;;;;;4250962;33;20380;-77
2022/01/12 15:27:55;;;;;;;;;;;3.50;99.90;;;;;;4274530;33;28750;-77
2022/01/12 15:30:22;;;;;;;;;;;3.50;99.90;;;;;;4261412;33;35877;-77
2022/01/12 15:32:50;;;;;;;;;;;3.50;99.90;;;;;;4274638;33;20023;-77
2022/01/12 15:35:19;;;;;;;;;;;3.50;99.90;;;;;;4261465;33;39094;-77
2022/01/12 15:37:46;;;;;;;;;;;3.50;99.90;;;;;;4261560;33;37953;-77
2022/01/12 15:40:14;;;;;;;;;;;3.50;99.90;;;;;;4262385;33;20424;-77
2022/01/12 15:42:41;;;;;;;;;;;3.50;99.90;;;;;;4261791;33;27598;-77
2022/01/12 15:45:08;;;;;;;;;;;3.50;99.90;;;;;;4274953;33;20015;-77
2022/01/12 15:47:35;;;;;;;;;;;3.50;99.90;;;;;;4261579;33;35596;-78
2022/01/12 15:50:04;;;;;;;;;;;3.50;99.90;;;;;;4249592;33;30175;-77
2022/01/12 15:52:33;;;;;;;;;;;3.50;99.90;;;;;;4274863;33;20011;-78
2022/01/12 15:55:00;;;;;;;;;;;3.50;99.90;;;;;;4261503;33;24146;-78
2022/01/12 15:57:28;;;;;;;;;;;3.60;99.90;;;;;;4261827;33;27236;-77
2022/01/12 15:59:55;;;;;;;;;;;3.50;99.90;;;;;;4260889;33;41862;-77
2022/01/12 16:02:23;;;;;;;;;;;3.50;99.90;;;;;;4274776;33;20018;-77
2022/01/12 16:04:50;;;;;;;;;;;3.50;99.90;;;;;;4261144;33;34821;-77
2022/01/12 16:07:18;;;;;;;;;;;3.50;99.90;;;;;;4261251;33;33311;-78
2022/01/12 16:09:45;;;;;;;;;;;3.50;99.90;;;;;;4273679;33;41050;-77
2022/01/12 16:12:13;;;;;;;;;;;3.50;99.90;;;;;;4260466;33;44396;-77
2022/01/12 16:15:02;;;;;;;;;;;3.50;99.90;;;;;;4264226;33;20018;-77